NCAR-RAP Real-Time Weather Data

Output produced by METARs form (26 May 2022  09:00 UTC)
found at http://weather.rap.ucar.edu/surface/
 
KSTL 260751Z 14006KT 10SM BKN040 OVC220 21/18 A2975 RMK AO2 SLP062 OCNL LTGICCC DSNT W CB DSNT W MOV N T02060183
KSTL 260651Z 15006KT 10SM FEW030 FEW100 21/18 A2975 RMK AO2 SLP065 T02060183
KSTL 260551Z 16006KT 10SM FEW030 SCT100 21/18 A2976 RMK AO2 SLP067 60001 T02110183 10222 20206 402720200 50008
KSTL 260451Z 17007KT 10SM FEW030 FEW100 21/18 A2976 RMK AO2 SLP069 T02110183
KSTL 260351Z 15007KT 10SM FEW230 21/18 A2975 RMK AO2 SLP065 T02110183
KSTL 260251Z 17011KT 10SM FEW050 BKN230 22/18 A2974 RMK AO2 SLP060 60001 T02170183 53006
KSTL 260151Z 14008KT 10SM FEW045 FEW180 SCT250 21/18 A2972 RMK AO2 SLP056 T02110183
KSTL 260051Z 16007KT 10SM FEW045 SCT180 BKN250 22/18 A2972 RMK AO2 RAE03 TSE06 SLP055 P0001 T02170183
KSTL 260006Z 17010KT 10SM FEW020 SCT050 BKN120 BKN200 22/19 A2972 RMK AO2 RAE03 TSE06 P0001 T02170189
KSTL 252351Z 17012KT 5SM -TSRA FEW020 SCT050CB BKN080 BKN250 22/19 A2972 RMK AO2 SLP055 OCNL LTGICCCCG SE TS SE MOV N P0005 60098 T02220194 10272 20211 55001
KSTL 252335Z 17012G20KT 4SM R30R/5000VP6000FT TSRA FEW020 BKN045CB BKN100 BKN250 23/20 A2971 RMK AO2 LTG DSNT S OCNL LTGICCCCG S TS S MOV N P0001 T02280200
KSTL 252251Z 18011G24KT 5SM -TSRA BR FEW015 BKN030CB BKN100 BKN250 22/19 A2971 RMK AO2 PK WND 14038/2210 WSHFT 2209 LTG DSNT N TSB09 SLP052 OCNL LTGICCCCG ALQDS TS ALQDS MOV N P0093 T02170194
KSTL 252245Z 17014G25KT 3SM R30R/2200VP6000FT +TSRA BR SCT015 BKN029CB BKN070 BKN250 21/19 A2971 RMK AO2 PK WND 14038/2210 WSHFT 2209 LTG DSNT N AND NE TSB09 OCNL LTGICCCCG ALQDS TS ALQDS MOV N P0088
KSTL 252226Z 21025G34KT 3/4SM R30R/P6000FT +TSRA BR SCT013 BKN029CB OVC060 22/19 A2972 RMK AO2 PK WND 14038/2210 WSHFT 2209 LTG DSNT NE AND NW TSB09 PRESRR OCNL LTGICCCCG ALQDS TS ALQDS MOV N P0007 T02170194
KSTL 252209Z 13020G35KT 3SM R30R/3500VP6000FT -TSRA BKN045CB BKN110 OVC250 26/19 A2970 RMK AO2 PK WND 14035/2209 LTG DSNT ALQDS TSB09 OCNL LTGICCCCG ALQDS TS ALQDS MOV N P0000 T02610189
KSTL 252151Z 15013KT 10SM -RA FEW030 BKN050 BKN250 27/18 A2968 RMK AO2 PK WND 17029/2054 LTG DSNT E-SW RAB44 SLP042 OCNL LTGICCG DSNT SE-S CB DSNT SE-S MOV N P0000 T02670183
KSTL 252051Z 16016G27KT 10SM SCT033 BKN041 BKN055 BKN250 27/18 A2972 RMK AO2 PK WND 14028/2009 SLP054 60000 T02670183 58018
KSTL 251951Z 15012KT 10SM FEW028 BKN034 BKN043 BKN250 26/19 A2974 RMK AO2 PK WND 18026/1913 SLP062 T02560189
KSTL 251851Z 15016G22KT 10SM FEW024 SCT030 BKN039 OVC250 25/19 A2977 RMK AO2 PK WND 18027/1808 RAE03 SLP070 P0000 T02500189
KSTL 251825Z 17014G22KT 10SM SCT025 SCT032 BKN039 OVC250 25/19 A2978 RMK AO2 PK WND 18027/1808 RAE03 P0000 T02500189
KSTL 251751Z 17016G24KT 10SM -RA BKN024 OVC037 24/18 A2977 RMK AO2 PK WND 18029/1737 RAE06B35 SLP072 P0000 60000 T02390183 10239 20200 56015
KSTL 251651Z 15011KT 10SM -RA BKN018 BKN025 OVC033 23/19 A2978 RMK AO2 PK WND 13026/1605 RAB13 SLP075 P0000 T02280189
KSTL 251551Z 15017G27KT 10SM FEW013 BKN026 OVC075 22/19 A2980 RMK AO2 PK WND 14027/1551 RAE06B23E43 SLP083 P0000 T02220189
KSTL 251535Z 15011KT 8SM -RA SCT014 BKN020 OVC032 22/19 A2981 RMK AO2 RAE06B23 P0000 T02170189
KSTL 251524Z 15013G22KT 4SM -RA FEW014 BKN020 OVC048 22/18 A2982 RMK AO2 RAE06B23 P0000 T02170183
KSTL 251451Z 15012G21KT 10SM -RA BKN018 OVC039 21/18 A2982 RMK AO2 RAE1358B40 SLP089 P0000 60000 T02110178 50001
KSTL 251407Z 15011KT 10SM OVC016 21/18 A2983 RMK AO2 RAE1358 P0000 T02110178
KSTL 251351Z 16014G21KT 10SM -RA BKN014 OVC020 21/18 A2983 RMK AO2 RAB49 SLP091 P0000 T02110178
KSTL 251257Z 15016G21KT 10SM BKN018 BKN110 OVC200 21/17 A2983 RMK AO2 T02060172
KSTL 251251Z COR 14012KT 10SM SCT015 SCT110 BKN160 BKN200 21/18 A2982 RMK AO2 RAE20 SLP090 P0000 T02060178
KSTL 251151Z 13011KT 10SM -RA FEW012 FEW090 BKN110 BKN200 20/18 A2982 RMK AO2 SLP087 P0002 60002 70002 T02000178 10211 20200 56004
KSTL 251059Z 14012G19KT 8SM -RA SCT012 BKN120 BKN200 20/18 A2983 RMK AO2 P0000 T02000178
KSTL 251051Z 14011KT 9SM -RA BKN012 OVC110 20/17 A2982 RMK AO2 RAB45 SLP088 P0000 T02000172
KSTL 251047Z 14011G17KT 9SM -RA BKN012 BKN110 BKN200 20/17 A2982 RMK AO2 RAB45 P0000
KSTL 250951Z 15012KT 10SM FEW010 OVC130 20/17 A2983 RMK AO2 SLP093 T02000172
KSTL 250851Z 14013KT 10SM FEW010 OVC130 20/18 A2983 RMK AO2 RAE17 SLP093 P0000 60000 T02000178 55014
KSTL 250831Z 13010KT 10SM SCT012 OVC130 20/18 A2983 RMK AO2 RAE17 P0000 T02000178
KSTL 250751Z 13012KT 9SM -RA OVC013 20/17 A2983 RMK AO2 RAE13B46 SLP092 P0000 T02000172
KSTL 250723Z 11010KT 10SM OVC013 20/17 A2982 RMK AO2 RAE13 P0000 T02000172
KSTL 250651Z 12011KT 10SM -RA BKN015 OVC055 20/17 A2985 RMK AO2 RAB06 SLP099 P0000 T02000172
KSTL 250610Z 13016KT 10SM -RA BKN021 BKN028 OVC048 21/16 A2987 RMK AO2 RAB06 P0000 T02110161
KSTL 250551Z 13013G22KT 10SM SCT025 BKN031 OVC048 21/16 A2987 RMK AO2 SLP108 T02110161 10233 20211 402330128 58013
KSTL 250451Z 13012KT 10SM SCT030 BKN140 OVC200 21/16 A2989 RMK AO2 SLP113 T02110161
KSTL 250351Z 13014G22KT 10SM FEW030 SCT050 OVC170 22/16 A2991 RMK AO2 SLP120 T02170156
KSTL 250251Z 14016G20KT 10SM FEW045 SCT100 BKN150 OVC250 22/16 A2991 RMK AO2 SLP123 T02170161 55002
KSTL 250151Z 12010KT 10SM SCT075 OVC110 22/16 A2990 RMK AO2 SLP121 T02220161
KSTL 250051Z 12013KT 10SM FEW075 BKN110 BKN150 OVC250 23/16 A2991 RMK AO2 SLP121 T02280156
KSTL 242351Z 10010KT 10SM FEW030 SCT075 BKN150 BKN250 23/16 A2992 RMK AO2 SLP125 T02280156 10228 20189 56022
KSTL 242251Z 11012KT 10SM FEW030 BKN070 OVC250 23/15 A2993 RMK AO2 SLP131 T02280150
KSTL 242151Z 10013G19KT 10SM FEW029 SCT050 OVC080 22/14 A2995 RMK AO2 SLP137 T02220144
KSTL 242051Z 10011KT 10SM SCT026 BKN050 OVC080 21/14 A2998 RMK AO2 SLP148 T02110144 56024
KSTL 242042Z 11011KT 10SM SCT026 BKN050 OVC080 21/14 A2999 RMK AO2 T02110144
KSTL 241951Z 13012KT 10SM BKN026 OVC042 21/14 A3001 RMK AO2 SLP157 T02060139
KSTL 241851Z 10013KT 10SM BKN023 OVC070 21/13 A3002 RMK AO2 SLP162 T02060133
KSTL 241751Z 09016KT 10SM BKN026 OVC048 19/12 A3006 RMK AO2 SLP173 T01890122 10206 20139 57013
KSTL 241651Z 11013G22KT 10SM BKN026 OVC050 19/12 A3007 RMK AO2 SLP177 T01940122
KSTL 241630Z 10014KT 10SM BKN026 BKN050 OVC220 19/12 A3007 RMK AO2 T01940117
KSTL 241551Z 08013KT 10SM FEW025 SCT050 BKN220 OVC300 19/11 A3008 RMK AO2 SLP182 T01890111
KSTL 241451Z 08011KT 10SM BKN055 OVC210 17/11 A3010 RMK AO2 PRESFR SLP187 T01720106 58006
KSTL 241351Z 09007KT 10SM FEW130 SCT200 OVC250 17/10 A3012 RMK AO2 SLP196 ACC N T01670100
KSTL 241251Z 07006KT 10SM FEW130 SCT220 BKN250 15/09 A3012 RMK AO2 SLP195 T01500089
KSTL 241151Z 06005KT 10SM FEW130 BKN220 BKN250 14/08 A3012 RMK AO2 SLP193 T01390083 10167 20128 53006
KSTL 241051Z 07005KT 10SM FEW130 BKN220 BKN250 13/08 A3010 RMK AO2 SLP190 T01280083
KSTL 240951Z 06006KT 10SM SCT250 14/08 A3010 RMK AO2 SLP187 T01390083